sensor_id;sensor_type;location;lat;lon;timestamp;pressure;altitude;pressure_sealevel;temperature;humidity
24280;BME280;12395;42.808;23.408;2022-09-29T00:00:52;94068.09;;;17.15;83.31
24280;BME280;12395;42.808;23.408;2022-09-29T00:03:18;94051.22;;;17.14;84.80
24280;BME280;12395;42.808;23.408;2022-09-29T00:05:55;94056.03;;;17.07;85.25
24280;BME280;12395;42.808;23.408;2022-09-29T00:08:23;94062.47;;;17.06;84.54
24280;BME280;12395;42.808;23.408;2022-09-29T00:10:49;94039.19;;;17.02;82.83
24280;BME280;12395;42.808;23.408;2022-09-29T00:13:15;94053.91;;;17.04;84.58
24280;BME280;12395;42.808;23.408;2022-09-29T00:15:41;94056.31;;;17.06;84.37
24280;BME280;12395;42.808;23.408;2022-09-29T00:18:08;94056.03;;;17.02;85.56
24280;BME280;12395;42.808;23.408;2022-09-29T00:20:35;94056.28;;;17.01;84.75
24280;BME280;12395;42.808;23.408;2022-09-29T00:23:01;94044.50;;;16.96;83.58
24280;BME280;12395;42.808;23.408;2022-09-29T00:25:26;94048.28;;;17.11;81.69
24280;BME280;12395;42.808;23.408;2022-09-29T00:27:51;94048.53;;;17.14;81.80
24280;BME280;12395;42.808;23.408;2022-09-29T00:30:17;94048.00;;;17.22;80.81
24280;BME280;12395;42.808;23.408;2022-09-29T00:32:42;94050.91;;;17.26;80.31
24280;BME280;12395;42.808;23.408;2022-09-29T00:35:08;94057.34;;;17.35;80.78
24280;BME280;12395;42.808;23.408;2022-09-29T00:37:34;94040.50;;;17.19;80.99
24280;BME280;12395;42.808;23.408;2022-09-29T00:40:00;94036.19;;;17.28;79.72
24280;BME280;12395;42.808;23.408;2022-09-29T00:42:26;94062.16;;;17.43;79.50
24280;BME280;12395;42.808;23.408;2022-09-29T00:45:04;94051.47;;;17.33;78.58
24280;BME280;12395;42.808;23.408;2022-09-29T00:47:38;94033.81;;;17.32;78.39
24280;BME280;12395;42.808;23.408;2022-09-29T00:50:25;94033.00;;;17.31;78.57
24280;BME280;12395;42.808;23.408;2022-09-29T00:52:55;94051.47;;;17.33;79.02
24280;BME280;12395;42.808;23.408;2022-09-29T00:55:35;94047.44;;;17.30;82.25
24280;BME280;12395;42.808;23.408;2022-09-29T00:58:08;94051.50;;;17.13;85.07
24280;BME280;12395;42.808;23.408;2022-09-29T01:00:37;94030.59;;;16.89;88.73
24280;BME280;12395;42.808;23.408;2022-09-29T01:03:14;94046.09;;;16.72;89.75
24280;BME280;12395;42.808;23.408;2022-09-29T01:05:44;94048.75;;;16.57;91.91
24280;BME280;12395;42.808;23.408;2022-09-29T01:08:16;94052.41;;;16.36;93.13
24280;BME280;12395;42.808;23.408;2022-09-29T01:10:46;94033.59;;;16.01;95.17
24280;BME280;12395;42.808;23.408;2022-09-29T01:13:13;94049.06;;;15.94;95.94
24280;BME280;12395;42.808;23.408;2022-09-29T01:15:39;94043.69;;;15.84;97.00
24280;BME280;12395;42.808;23.408;2022-09-29T01:18:04;94043.91;;;15.77;97.75
24280;BME280;12395;42.808;23.408;2022-09-29T01:20:32;94043.88;;;15.67;98.51
24280;BME280;12395;42.808;23.408;2022-09-29T01:28:43;94044.09;;;15.24;100.00
24280;BME280;12395;42.808;23.408;2022-09-29T01:41:20;94047.13;;;14.69;100.00
24280;BME280;12395;42.808;23.408;2022-09-29T01:43:55;94056.38;;;14.61;100.00
24280;BME280;12395;42.808;23.408;2022-09-29T01:46:32;94050.97;;;14.51;100.00
24280;BME280;12395;42.808;23.408;2022-09-29T01:49:01;94052.16;;;14.39;100.00
24280;BME280;12395;42.808;23.408;2022-09-29T01:51:34;94066.59;;;14.21;100.00
24280;BME280;12395;42.808;23.408;2022-09-29T01:54:04;94058.13;;;14.03;100.00
24280;BME280;12395;42.808;23.408;2022-09-29T01:59:14;94057.00;;;13.99;100.00
24280;BME280;12395;42.808;23.408;2022-09-29T02:01:43;94060.84;;;14.08;100.00
24280;BME280;12395;42.808;23.408;2022-09-29T02:04:45;94060.72;;;13.98;100.00
24280;BME280;12395;42.808;23.408;2022-09-29T02:07:23;94059.25;;;14.07;100.00
24280;BME280;12395;42.808;23.408;2022-09-29T02:09:58;94063.47;;;14.03;100.00
24280;BME280;12395;42.808;23.408;2022-09-29T02:12:26;94064.25;;;14.03;100.00
24280;BME280;12395;42.808;23.408;2022-09-29T02:14:55;94063.31;;;13.92;100.00
24280;BME280;12395;42.808;23.408;2022-09-29T02:17:30;94069.47;;;13.93;100.00
24280;BME280;12395;42.808;23.408;2022-09-29T02:19:57;94082.03;;;13.98;100.00
24280;BME280;12395;42.808;23.408;2022-09-29T02:22:22;94079.28;;;13.92;100.00
24280;BME280;12395;42.808;23.408;2022-09-29T02:24:51;94071.25;;;13.87;100.00
24280;BME280;12395;42.808;23.408;2022-09-29T02:27:18;94073.38;;;13.85;100.00
24280;BME280;12395;42.808;23.408;2022-09-29T02:29:45;94072.38;;;13.70;100.00
24280;BME280;12395;42.808;23.408;2022-09-29T02:32:10;94072.63;;;13.68;100.00
24280;BME280;12395;42.808;23.408;2022-09-29T02:34:40;94072.88;;;13.50;100.00
24280;BME280;12395;42.808;23.408;2022-09-29T02:37:14;94088.50;;;13.63;100.00
24280;BME280;12395;42.808;23.408;2022-09-29T02:50:21;94068.00;;;13.42;100.00
24280;BME280;12395;42.808;23.408;2022-09-29T02:53:03;94054.78;;;13.31;100.00
24280;BME280;12395;42.808;23.408;2022-09-29T02:55:51;94053.19;;;13.30;100.00
24280;BME280;12395;42.808;23.408;2022-09-29T02:58:25;94046.88;;;13.36;100.00
24280;BME280;12395;42.808;23.408;2022-09-29T03:00:53;94058.00;;;13.33;100.00
24280;BME280;12395;42.808;23.408;2022-09-29T03:03:19;94077.84;;;13.25;100.00
24280;BME280;12395;42.808;23.408;2022-09-29T03:05:44;94062.31;;;13.17;100.00
24280;BME280;12395;42.808;23.408;2022-09-29T03:08:10;94038.69;;;13.04;100.00
24280;BME280;12395;42.808;23.408;2022-09-29T03:10:35;94064.63;;;13.13;100.00
24280;BME280;12395;42.808;23.408;2022-09-29T03:13:01;94052.63;;;13.11;100.00
24280;BME280;12395;42.808;23.408;2022-09-29T03:15:26;94050.78;;;13.11;100.00
24280;BME280;12395;42.808;23.408;2022-09-29T03:17:54;94060.41;;;13.01;100.00
24280;BME280;12395;42.808;23.408;2022-09-29T03:20:21;94083.94;;;12.92;100.00
24280;BME280;12395;42.808;23.408;2022-09-29T03:22:46;94068.25;;;12.91;100.00
24280;BME280;12395;42.808;23.408;2022-09-29T03:25:12;94073.47;;;12.86;100.00
24280;BME280;12395;42.808;23.408;2022-09-29T03:27:38;94073.78;;;12.73;100.00
24280;BME280;12395;42.808;23.408;2022-09-29T03:30:04;94079.03;;;12.68;100.00
24280;BME280;12395;42.808;23.408;2022-09-29T03:32:30;94081.03;;;12.61;100.00
24280;BME280;12395;42.808;23.408;2022-09-29T03:34:55;94078.63;;;12.59;100.00
24280;BME280;12395;42.808;23.408;2022-09-29T03:37:21;94080.84;;;12.51;100.00
24280;BME280;12395;42.808;23.408;2022-09-29T03:39:46;94101.53;;;12.49;100.00
24280;BME280;12395;42.808;23.408;2022-09-29T03:42:11;94094.50;;;12.43;100.00
24280;BME280;12395;42.808;23.408;2022-09-29T03:44:37;94099.22;;;12.52;100.00
24280;BME280;12395;42.808;23.408;2022-09-29T03:47:02;94122.66;;;12.55;100.00
24280;BME280;12395;42.808;23.408;2022-09-29T03:49:28;94110.78;;;12.46;100.00
24280;BME280;12395;42.808;23.408;2022-09-29T03:51:54;94096.41;;;12.30;100.00
24280;BME280;12395;42.808;23.408;2022-09-29T03:54:19;94106.19;;;12.42;100.00
24280;BME280;12395;42.808;23.408;2022-09-29T03:56:44;94108.66;;;12.31;100.00
24280;BME280;12395;42.808;23.408;2022-09-29T03:59:10;94098.78;;;12.15;100.00
24280;BME280;12395;42.808;23.408;2022-09-29T04:01:36;94084.75;;;12.03;100.00
24280;BME280;12395;42.808;23.408;2022-09-29T04:04:02;94106.16;;;12.13;100.00
24280;BME280;12395;42.808;23.408;2022-09-29T04:06:28;94086.16;;;11.94;100.00
24280;BME280;12395;42.808;23.408;2022-09-29T04:08:54;94086.81;;;12.01;100.00
24280;BME280;12395;42.808;23.408;2022-09-29T04:11:19;94075.09;;;11.86;100.00
24280;BME280;12395;42.808;23.408;2022-09-29T04:13:44;94098.47;;;12.00;100.00
24280;BME280;12395;42.808;23.408;2022-09-29T04:16:10;94092.59;;;11.98;100.00
24280;BME280;12395;42.808;23.408;2022-09-29T04:18:36;94102.50;;;12.03;100.00
24280;BME280;12395;42.808;23.408;2022-09-29T04:21:08;94100.19;;;12.06;100.00
24280;BME280;12395;42.808;23.408;2022-09-29T04:23:34;94101.19;;;12.17;100.00
24280;BME280;12395;42.808;23.408;2022-09-29T04:26:01;94085.34;;;12.22;100.00
24280;BME280;12395;42.808;23.408;2022-09-29T04:28:27;94050.81;;;12.05;100.00
24280;BME280;12395;42.808;23.408;2022-09-29T04:30:52;94080.47;;;12.30;100.00
24280;BME280;12395;42.808;23.408;2022-09-29T04:33:18;94081.44;;;12.24;100.00
24280;BME280;12395;42.808;23.408;2022-09-29T04:35:44;94079.50;;;12.08;100.00
24280;BME280;12395;42.808;23.408;2022-09-29T04:38:10;94045.75;;;11.92;100.00
24280;BME280;12395;42.808;23.408;2022-09-29T04:40:36;94083.22;;;12.07;100.00
24280;BME280;12395;42.808;23.408;2022-09-29T04:43:02;94079.75;;;12.07;100.00
24280;BME280;12395;42.808;23.408;2022-09-29T04:45:29;94072.53;;;12.19;100.00
24280;BME280;12395;42.808;23.408;2022-09-29T04:47:54;94058.06;;;12.10;100.00
24280;BME280;12395;42.808;23.408;2022-09-29T04:50:20;94048.31;;;12.15;100.00
24280;BME280;12395;42.808;23.408;2022-09-29T04:52:45;94065.09;;;12.32;100.00
24280;BME280;12395;42.808;23.408;2022-09-29T04:55:11;94059.69;;;12.27;100.00
24280;BME280;12395;42.808;23.408;2022-09-29T04:57:38;94043.25;;;12.14;100.00
24280;BME280;12395;42.808;23.408;2022-09-29T05:00:04;94056.28;;;12.15;100.00
24280;BME280;12395;42.808;23.408;2022-09-29T05:02:30;94067.72;;;12.16;100.00
24280;BME280;12395;42.808;23.408;2022-09-29T05:04:56;94041.69;;;12.01;100.00
24280;BME280;12395;42.808;23.408;2022-09-29T05:07:28;94058.84;;;12.10;100.00
24280;BME280;12395;42.808;23.408;2022-09-29T05:09:54;94059.50;;;12.17;100.00
24280;BME280;12395;42.808;23.408;2022-09-29T05:12:19;94069.53;;;12.27;100.00
24280;BME280;12395;42.808;23.408;2022-09-29T05:14:45;94074.22;;;12.36;100.00
24280;BME280;12395;42.808;23.408;2022-09-29T05:17:11;94051.38;;;12.35;100.00
24280;BME280;12395;42.808;23.408;2022-09-29T05:19:37;94083.44;;;12.62;100.00
24280;BME280;12395;42.808;23.408;2022-09-29T05:22:02;94082.25;;;12.70;100.00
24280;BME280;12395;42.808;23.408;2022-09-29T05:24:27;94083.94;;;12.76;100.00
24280;BME280;12395;42.808;23.408;2022-09-29T05:26:53;94095.31;;;12.88;100.00
24280;BME280;12395;42.808;23.408;2022-09-29T05:29:19;94109.25;;;12.95;100.00
24280;BME280;12395;42.808;23.408;2022-09-29T05:31:44;94111.50;;;13.03;100.00
24280;BME280;12395;42.808;23.408;2022-09-29T05:34:10;94110.56;;;13.09;100.00
24280;BME280;12395;42.808;23.408;2022-09-29T05:36:36;94104.94;;;13.22;100.00
24280;BME280;12395;42.808;23.408;2022-09-29T05:39:02;94098.16;;;13.14;100.00
24280;BME280;12395;42.808;23.408;2022-09-29T05:41:27;94108.88;;;13.20;100.00
24280;BME280;12395;42.808;23.408;2022-09-29T05:43:54;94109.78;;;13.25;100.00
24280;BME280;12395;42.808;23.408;2022-09-29T05:46:20;94113.88;;;13.33;100.00
24280;BME280;12395;42.808;23.408;2022-09-29T05:48:46;94116.78;;;13.31;100.00
24280;BME280;12395;42.808;23.408;2022-09-29T05:51:15;94107.91;;;13.42;100.00
24280;BME280;12395;42.808;23.408;2022-09-29T05:53:41;94105.38;;;13.52;100.00
24280;BME280;12395;42.808;23.408;2022-09-29T05:56:12;94103.28;;;13.54;100.00
24280;BME280;12395;42.808;23.408;2022-09-29T05:58:39;94121.66;;;13.72;100.00
24280;BME280;12395;42.808;23.408;2022-09-29T06:01:10;94133.28;;;13.88;100.00
24280;BME280;12395;42.808;23.408;2022-09-29T06:03:36;94126.56;;;14.02;100.00
24280;BME280;12395;42.808;23.408;2022-09-29T06:06:09;94118.03;;;14.00;100.00
24280;BME280;12395;42.808;23.408;2022-09-29T06:08:36;94122.44;;;14.33;100.00
24280;BME280;12395;42.808;23.408;2022-09-29T06:11:10;94134.44;;;14.57;100.00
24280;BME280;12395;42.808;23.408;2022-09-29T06:13:40;94130.91;;;14.78;100.00
24280;BME280;12395;42.808;23.408;2022-09-29T06:16:06;94131.88;;;14.94;100.00
24280;BME280;12395;42.808;23.408;2022-09-29T06:18:32;94134.97;;;15.12;100.00
24280;BME280;12395;42.808;23.408;2022-09-29T06:21:05;94126.28;;;15.27;100.00
24280;BME280;12395;42.808;23.408;2022-09-29T06:23:31;94133.94;;;15.45;100.00
24280;BME280;12395;42.808;23.408;2022-09-29T06:25:58;94125.19;;;15.55;100.00
24280;BME280;12395;42.808;23.408;2022-09-29T06:28:26;94125.78;;;15.62;100.00
24280;BME280;12395;42.808;23.408;2022-09-29T06:30:52;94137.13;;;15.79;100.00
24280;BME280;12395;42.808;23.408;2022-09-29T06:33:17;94132.09;;;15.82;100.00
24280;BME280;12395;42.808;23.408;2022-09-29T06:35:46;94144.94;;;15.90;100.00
24280;BME280;12395;42.808;23.408;2022-09-29T06:38:30;94157.00;;;15.98;100.00
24280;BME280;12395;42.808;23.408;2022-09-29T06:40:56;94167.50;;;16.14;100.00
24280;BME280;12395;42.808;23.408;2022-09-29T06:43:21;94161.69;;;16.28;100.00
24280;BME280;12395;42.808;23.408;2022-09-29T06:45:47;94156.97;;;16.40;99.51
24280;BME280;12395;42.808;23.408;2022-09-29T06:48:12;94156.72;;;16.46;96.51
24280;BME280;12395;42.808;23.408;2022-09-29T06:50:38;94144.25;;;16.67;95.30
24280;BME280;12395;42.808;23.408;2022-09-29T06:53:03;94149.97;;;16.95;93.93
24280;BME280;12395;42.808;23.408;2022-09-29T06:55:29;94166.88;;;17.21;92.10
24280;BME280;12395;42.808;23.408;2022-09-29T06:57:54;94168.75;;;17.36;91.48
24280;BME280;12395;42.808;23.408;2022-09-29T07:00:20;94151.06;;;17.40;90.72
24280;BME280;12395;42.808;23.408;2022-09-29T07:02:45;94169.06;;;17.54;88.72
24280;BME280;12395;42.808;23.408;2022-09-29T07:05:11;94175.75;;;17.57;88.88
24280;BME280;12395;42.808;23.408;2022-09-29T07:07:36;94172.00;;;17.68;88.76
24280;BME280;12395;42.808;23.408;2022-09-29T07:10:02;94170.94;;;17.79;88.23
24280;BME280;12395;42.808;23.408;2022-09-29T07:12:27;94178.16;;;17.89;87.99
24280;BME280;12395;42.808;23.408;2022-09-29T07:14:53;94178.41;;;18.02;87.10
24280;BME280;12395;42.808;23.408;2022-09-29T07:17:18;94157.22;;;18.11;87.45
24280;BME280;12395;42.808;23.408;2022-09-29T07:19:43;94165.72;;;18.38;87.11
24280;BME280;12395;42.808;23.408;2022-09-29T07:22:09;94176.66;;;18.62;86.27
24280;BME280;12395;42.808;23.408;2022-09-29T07:24:35;94178.22;;;18.73;85.25
24280;BME280;12395;42.808;23.408;2022-09-29T07:27:00;94166.41;;;18.74;84.91
24280;BME280;12395;42.808;23.408;2022-09-29T07:29:26;94166.34;;;18.89;85.22
24280;BME280;12395;42.808;23.408;2022-09-29T07:31:51;94167.06;;;19.04;83.35
24280;BME280;12395;42.808;23.408;2022-09-29T07:34:19;94172.03;;;19.26;81.87
24280;BME280;12395;42.808;23.408;2022-09-29T07:36:45;94165.03;;;19.30;80.52
24280;BME280;12395;42.808;23.408;2022-09-29T07:39:10;94163.50;;;19.14;74.51
24280;BME280;12395;42.808;23.408;2022-09-29T07:41:36;94164.06;;;19.11;74.22
24280;BME280;12395;42.808;23.408;2022-09-29T07:44:01;94170.41;;;19.25;73.90
24280;BME280;12395;42.808;23.408;2022-09-29T07:46:27;94167.72;;;19.35;72.14
24280;BME280;12395;42.808;23.408;2022-09-29T07:48:52;94172.41;;;19.53;72.99
24280;BME280;12395;42.808;23.408;2022-09-29T07:51:19;94184.91;;;19.68;67.69
24280;BME280;12395;42.808;23.408;2022-09-29T07:53:45;94195.31;;;19.79;66.96
24280;BME280;12395;42.808;23.408;2022-09-29T07:56:13;94193.66;;;19.88;65.63
24280;BME280;12395;42.808;23.408;2022-09-29T07:58:40;94189.16;;;19.74;66.99
24280;BME280;12395;42.808;23.408;2022-09-29T08:01:08;94189.44;;;19.77;64.70
24280;BME280;12395;42.808;23.408;2022-09-29T08:03:37;94186.03;;;19.95;65.42
24280;BME280;12395;42.808;23.408;2022-09-29T08:06:03;94169.03;;;20.05;64.12
24280;BME280;12395;42.808;23.408;2022-09-29T08:08:29;94190.31;;;20.30;65.66
24280;BME280;12395;42.808;23.408;2022-09-29T08:11:03;94196.31;;;20.22;63.75
24280;BME280;12395;42.808;23.408;2022-09-29T08:13:28;94196.16;;;20.37;64.98
24280;BME280;12395;42.808;23.408;2022-09-29T08:15:59;94189.88;;;20.47;66.00
24280;BME280;12395;42.808;23.408;2022-09-29T08:18:26;94199.59;;;20.43;65.10
24280;BME280;12395;42.808;23.408;2022-09-29T08:20:52;94201.44;;;20.19;65.07
24280;BME280;12395;42.808;23.408;2022-09-29T08:23:18;94199.31;;;20.21;66.64
24280;BME280;12395;42.808;23.408;2022-09-29T08:25:44;94205.75;;;20.15;65.53
24280;BME280;12395;42.808;23.408;2022-09-29T08:28:10;94217.03;;;20.22;65.37
24280;BME280;12395;42.808;23.408;2022-09-29T08:30:35;94213.31;;;20.13;66.58
24280;BME280;12395;42.808;23.408;2022-09-29T08:33:02;94207.09;;;20.22;68.54
24280;BME280;12395;42.808;23.408;2022-09-29T08:35:28;94217.03;;;20.22;64.59
24280;BME280;12395;42.808;23.408;2022-09-29T08:37:54;94223.94;;;20.33;67.18
24280;BME280;12395;42.808;23.408;2022-09-29T08:40:27;94212.53;;;20.41;64.68
24280;BME280;12395;42.808;23.408;2022-09-29T08:45:28;94225.69;;;20.95;65.54
24280;BME280;12395;42.808;23.408;2022-09-29T08:48:05;94215.97;;;21.17;64.84
24280;BME280;12395;42.808;23.408;2022-09-29T08:50:37;94224.38;;;21.34;63.08
24280;BME280;12395;42.808;23.408;2022-09-29T08:53:08;94227.44;;;21.65;63.01
24280;BME280;12395;42.808;23.408;2022-09-29T08:55:53;94226.94;;;22.00;61.70
24280;BME280;12395;42.808;23.408;2022-09-29T08:58:19;94233.63;;;22.21;60.81
24280;BME280;12395;42.808;23.408;2022-09-29T09:01:02;94238.88;;;22.45;59.85
24280;BME280;12395;42.808;23.408;2022-09-29T09:09:04;94238.94;;;22.99;56.68
24280;BME280;12395;42.808;23.408;2022-09-29T09:23:19;94214.66;;;22.86;53.41
24280;BME280;12395;42.808;23.408;2022-09-29T09:25:51;94221.84;;;22.90;54.98
24280;BME280;12395;42.808;23.408;2022-09-29T09:28:48;94233.75;;;23.03;56.99
24280;BME280;12395;42.808;23.408;2022-09-29T09:31:20;94233.97;;;23.07;57.24
24280;BME280;12395;42.808;23.408;2022-09-29T09:42:11;94220.84;;;23.41;55.48
24280;BME280;12395;42.808;23.408;2022-09-29T09:44:42;94218.28;;;23.58;52.36
24280;BME280;12395;42.808;23.408;2022-09-29T09:49:49;94229.25;;;23.75;52.92
24280;BME280;12395;42.808;23.408;2022-09-29T09:52:20;94229.59;;;23.96;52.47
24280;BME280;12395;42.808;23.408;2022-09-29T09:55:00;94211.13;;;23.98;51.66
24280;BME280;12395;42.808;23.408;2022-09-29T10:02:29;94223.63;;;23.85;53.34
24280;BME280;12395;42.808;23.408;2022-09-29T10:04:55;94206.75;;;23.66;53.01
24280;BME280;12395;42.808;23.408;2022-09-29T10:07:27;94197.97;;;23.60;53.47
24280;BME280;12395;42.808;23.408;2022-09-29T10:09:54;94216.41;;;23.58;54.08
24280;BME280;12395;42.808;23.408;2022-09-29T10:12:22;94199.91;;;23.19;49.84
24280;BME280;12395;42.808;23.408;2022-09-29T10:14:59;94210.63;;;23.38;52.03
24280;BME280;12395;42.808;23.408;2022-09-29T10:17:32;94221.81;;;23.58;52.75
24280;BME280;12395;42.808;23.408;2022-09-29T10:20:06;94222.38;;;23.91;52.86
24280;BME280;12395;42.808;23.408;2022-09-29T10:22:33;94220.06;;;23.98;48.70
24280;BME280;12395;42.808;23.408;2022-09-29T10:28:22;94222.75;;;24.12;46.94
24280;BME280;12395;42.808;23.408;2022-09-29T10:30:47;94213.72;;;24.16;47.79
24280;BME280;12395;42.808;23.408;2022-09-29T10:33:16;94211.00;;;24.16;48.73
24280;BME280;12395;42.808;23.408;2022-09-29T10:35:44;94211.34;;;24.23;46.48
24280;BME280;12395;42.808;23.408;2022-09-29T10:38:23;94204.56;;;23.90;45.71
24280;BME280;12395;42.808;23.408;2022-09-29T10:40:58;94218.84;;;23.82;48.18
24280;BME280;12395;42.808;23.408;2022-09-29T10:46:01;94202.25;;;23.61;46.88
24280;BME280;12395;42.808;23.408;2022-09-29T10:48:27;94206.31;;;23.72;48.38
24280;BME280;12395;42.808;23.408;2022-09-29T10:50:58;94192.91;;;23.67;48.25
24280;BME280;12395;42.808;23.408;2022-09-29T10:55:54;94186.59;;;23.72;47.81
24280;BME280;12395;42.808;23.408;2022-09-29T10:58:28;94195.22;;;23.96;47.93
24280;BME280;12395;42.808;23.408;2022-09-29T11:01:14;94164.94;;;23.50;48.90
24280;BME280;12395;42.808;23.408;2022-09-29T11:03:49;94175.47;;;23.38;49.81
24280;BME280;12395;42.808;23.408;2022-09-29T11:06:24;94166.38;;;23.34;48.98
24280;BME280;12395;42.808;23.408;2022-09-29T11:09:01;94190.28;;;23.27;48.48
24280;BME280;12395;42.808;23.408;2022-09-29T11:11:36;94169.38;;;23.19;49.68
24280;BME280;12395;42.808;23.408;2022-09-29T11:14:02;94173.28;;;23.26;50.08
24280;BME280;12395;42.808;23.408;2022-09-29T11:19:04;94172.47;;;23.26;50.51
24280;BME280;12395;42.808;23.408;2022-09-29T11:21:42;94182.28;;;23.22;49.93
24280;BME280;12395;42.808;23.408;2022-09-29T11:24:24;94179.50;;;23.13;51.58
24280;BME280;12395;42.808;23.408;2022-09-29T11:29:53;94175.88;;;23.45;49.82
24280;BME280;12395;42.808;23.408;2022-09-29T11:32:27;94171.16;;;23.72;49.51
24280;BME280;12395;42.808;23.408;2022-09-29T11:40:58;94166.91;;;24.02;46.72
24280;BME280;12395;42.808;23.408;2022-09-29T11:43:41;94177.63;;;24.29;48.51
24280;BME280;12395;42.808;23.408;2022-09-29T11:54:36;94183.34;;;24.89;46.26
24280;BME280;12395;42.808;23.408;2022-09-29T11:57:45;94180.47;;;24.86;45.78
24280;BME280;12395;42.808;23.408;2022-09-29T12:00:15;94169.41;;;24.74;44.43
24280;BME280;12395;42.808;23.408;2022-09-29T12:14:06;94178.78;;;25.07;42.67
24280;BME280;12395;42.808;23.408;2022-09-29T12:16:37;94172.78;;;25.27;43.50
24280;BME280;12395;42.808;23.408;2022-09-29T12:19:15;94151.72;;;25.24;44.01
24280;BME280;12395;42.808;23.408;2022-09-29T12:21:48;94163.22;;;25.21;45.58
24280;BME280;12395;42.808;23.408;2022-09-29T12:24:45;94161.91;;;25.10;42.15
24280;BME280;12395;42.808;23.408;2022-09-29T12:27:24;94162.81;;;24.97;43.74
24280;BME280;12395;42.808;23.408;2022-09-29T12:32:28;94163.66;;;25.06;43.60
24280;BME280;12395;42.808;23.408;2022-09-29T12:37:47;94154.69;;;24.97;42.54
24280;BME280;12395;42.808;23.408;2022-09-29T12:40:37;94170.53;;;25.12;43.57
24280;BME280;12395;42.808;23.408;2022-09-29T12:43:32;94160.78;;;25.11;43.31
24280;BME280;12395;42.808;23.408;2022-09-29T12:46:08;94165.09;;;25.12;45.15
24280;BME280;12395;42.808;23.408;2022-09-29T12:54:04;94172.00;;;24.79;43.92
24280;BME280;12395;42.808;23.408;2022-09-29T12:56:37;94170.66;;;24.68;45.52
24280;BME280;12395;42.808;23.408;2022-09-29T12:59:09;94160.56;;;24.60;44.58
24280;BME280;12395;42.808;23.408;2022-09-29T13:01:38;94159.59;;;24.56;45.32
24280;BME280;12395;42.808;23.408;2022-09-29T13:28:44;94170.34;;;23.50;48.75
24280;BME280;12395;42.808;23.408;2022-09-29T13:31:15;94159.03;;;23.48;48.05
24280;BME280;12395;42.808;23.408;2022-09-29T13:33:51;94160.91;;;23.83;48.04
24280;BME280;12395;42.808;23.408;2022-09-29T13:36:23;94170.75;;;24.01;48.09
24280;BME280;12395;42.808;23.408;2022-09-29T13:38:53;94167.66;;;23.94;46.73
24280;BME280;12395;42.808;23.408;2022-09-29T13:59:44;94170.06;;;23.38;48.03
24280;BME280;12395;42.808;23.408;2022-09-29T14:04:56;94169.09;;;23.20;49.21
24280;BME280;12395;42.808;23.408;2022-09-29T14:10:13;94188.19;;;23.24;49.75
24280;BME280;12395;42.808;23.408;2022-09-29T14:12:44;94190.50;;;23.17;49.75
24280;BME280;12395;42.808;23.408;2022-09-29T14:15:15;94183.50;;;23.16;51.69
24280;BME280;12395;42.808;23.408;2022-09-29T14:17:45;94179.81;;;22.98;52.19
24280;BME280;12395;42.808;23.408;2022-09-29T14:27:41;94179.50;;;22.45;54.07
24280;BME280;12395;42.808;23.408;2022-09-29T14:32:47;94186.84;;;22.26;54.17
24280;BME280;12395;42.808;23.408;2022-09-29T14:38:04;94184.66;;;21.96;55.58
24280;BME280;12395;42.808;23.408;2022-09-29T14:40:34;94204.13;;;21.93;55.70
24280;BME280;12395;42.808;23.408;2022-09-29T14:43:11;94200.25;;;21.80;56.23
24280;BME280;12395;42.808;23.408;2022-09-29T14:45:45;94207.34;;;21.76;57.62
24280;BME280;12395;42.808;23.408;2022-09-29T14:51:42;94205.75;;;21.57;56.96
24280;BME280;12395;42.808;23.408;2022-09-29T14:54:33;94213.88;;;21.51;56.68
24280;BME280;12395;42.808;23.408;2022-09-29T14:59:57;94216.00;;;21.55;55.94
24280;BME280;12395;42.808;23.408;2022-09-29T15:02:28;94222.94;;;21.61;56.76
24280;BME280;12395;42.808;23.408;2022-09-29T15:04:55;94219.94;;;21.43;55.07
24280;BME280;12395;42.808;23.408;2022-09-29T15:07:25;94232.91;;;21.41;58.76
24280;BME280;12395;42.808;23.408;2022-09-29T15:09:58;94264.09;;;21.47;70.15
24280;BME280;12395;42.808;23.408;2022-09-29T15:12:26;94274.34;;;21.27;74.57
24280;BME280;12395;42.808;23.408;2022-09-29T15:14:54;94257.94;;;21.00;76.38
24280;BME280;12395;42.808;23.408;2022-09-29T15:22:55;94270.38;;;20.72;81.85
24280;BME280;12395;42.808;23.408;2022-09-29T15:25:31;94253.28;;;20.58;84.43
24280;BME280;12395;42.808;23.408;2022-09-29T15:28:13;94254.03;;;20.35;82.18
24280;BME280;12395;42.808;23.408;2022-09-29T15:30:40;94251.44;;;20.20;84.23
24280;BME280;12395;42.808;23.408;2022-09-29T15:33:19;94264.38;;;20.18;85.54
24280;BME280;12395;42.808;23.408;2022-09-29T15:35:58;94262.44;;;19.89;86.71
24280;BME280;12395;42.808;23.408;2022-09-29T15:38:44;94260.00;;;19.54;89.31
24280;BME280;12395;42.808;23.408;2022-09-29T15:43:43;94258.34;;;19.09;93.45
24280;BME280;12395;42.808;23.408;2022-09-29T15:51:30;94256.38;;;18.46;96.87
24280;BME280;12395;42.808;23.408;2022-09-29T15:53:55;94248.63;;;18.19;96.78
24280;BME280;12395;42.808;23.408;2022-09-29T15:56:21;94255.06;;;18.03;96.92
24280;BME280;12395;42.808;23.408;2022-09-29T15:58:46;94266.31;;;18.00;97.89
24280;BME280;12395;42.808;23.408;2022-09-29T16:01:14;94260.69;;;17.82;97.90
24280;BME280;12395;42.808;23.408;2022-09-29T16:03:50;94265.22;;;17.86;97.33
24280;BME280;12395;42.808;23.408;2022-09-29T16:08:54;94281.56;;;17.64;97.85
24280;BME280;12395;42.808;23.408;2022-09-29T16:11:26;94284.50;;;17.53;100.00
24280;BME280;12395;42.808;23.408;2022-09-29T16:13:59;94292.75;;;17.46;100.00
24280;BME280;12395;42.808;23.408;2022-09-29T16:16:31;94280.13;;;17.37;100.00